Villa Trinidad, Argentina
Current Conditions -  °F | °C
As of 11:00 AM on Thursday 29 Jan 2015 (Local Time) from SACO Reporting Station
Broken Clouds Broken Clouds  
Wind Chill: 72°   Ceiling: 1200
Heat Index: 72°   Visibility: 6mi
Dew Point: 63°   Wind: 7mph
Humidity: 73%   Direction: 110°ESE
Pressure: 30.21"   Gusts: NA
Location:  30.22°S, 61.88°W
Report Text: SACO 291400Z 11006KT 9999 BKN012 BKN20022/17 Q1023
Loading
Personal Weather Stations






























Interactive Weather Map New forecast layout! Learn more

10-Day Weather Forecast

Advertisements
Track Severe Weather on mobile